createdAt,value
2022-08-05T00:01:00.986Z,28.20
2022-08-05T00:03:52.280Z,28.20
2022-08-05T00:06:43.806Z,28.10
2022-08-05T00:09:34.910Z,28.00
2022-08-05T00:12:26.042Z,28.00
2022-08-05T00:15:54.871Z,28.10
2022-08-05T00:18:10.422Z,28.00
2022-08-05T00:21:08.319Z,27.90
2022-08-05T00:24:10.741Z,27.80
2022-08-05T00:26:53.346Z,27.80
2022-08-05T00:29:44.699Z,27.80
2022-08-05T00:32:36.043Z,27.80
2022-08-05T00:35:33.153Z,27.80
2022-08-05T00:38:20.140Z,27.80
2022-08-05T00:41:12.511Z,27.70
2022-08-05T00:44:05.538Z,27.70
2022-08-05T00:47:01.891Z,27.60
2022-08-05T00:49:51.458Z,27.70
2022-08-05T00:52:42.251Z,27.60
2022-08-05T00:55:42.892Z,27.60
2022-08-05T00:58:27.766Z,27.60
2022-08-05T01:01:42.105Z,27.60
2022-08-05T01:04:14.086Z,27.50
2022-08-05T01:07:05.551Z,27.40
2022-08-05T01:09:57.867Z,27.40
2022-08-05T01:13:05.096Z,27.40
2022-08-05T01:15:49.296Z,27.30
2022-08-05T01:18:48.034Z,27.20
2022-08-05T01:22:08.055Z,27.10
2022-08-05T01:25:21.544Z,27.10
2022-08-05T01:28:27.944Z,27.10
2022-08-05T01:31:23.705Z,27.20
2022-08-05T01:34:19.143Z,27.10
2022-08-05T01:37:18.086Z,27.10
2022-08-05T01:40:11.205Z,27.10
2022-08-05T01:43:04.168Z,27.20
2022-08-05T01:45:57.162Z,27.20
2022-08-05T01:48:50.109Z,27.10
2022-08-05T01:51:43.120Z,27.10
2022-08-05T01:54:45.779Z,27.10
2022-08-05T01:58:18.879Z,27.10
2022-08-05T02:00:29.905Z,27.00
2022-08-05T02:03:24.173Z,27.00
2022-08-05T02:06:37.272Z,27.00
2022-08-05T02:09:10.092Z,26.90
2022-08-05T02:12:06.624Z,26.80
2022-08-05T02:15:03.021Z,26.80
2022-08-05T02:18:32.610Z,26.80
2022-08-05T02:20:54.542Z,26.80
2022-08-05T02:23:50.476Z,26.80
2022-08-05T02:26:53.912Z,26.80
2022-08-05T02:29:59.152Z,26.70
2022-08-05T02:32:33.044Z,26.60
2022-08-05T02:35:33.046Z,26.70
2022-08-05T02:38:22.705Z,26.60
2022-08-05T02:41:17.946Z,26.60
2022-08-05T02:44:13.406Z,26.60
2022-08-05T02:47:06.277Z,26.40
2022-08-05T02:49:58.136Z,26.40
2022-08-05T02:52:50.346Z,26.30
2022-08-05T02:55:54.207Z,26.40
2022-08-05T02:58:35.919Z,26.40
2022-08-05T03:01:32.508Z,26.50
2022-08-05T03:04:23.864Z,26.60
2022-08-05T03:07:30.506Z,26.50
2022-08-05T03:10:11.629Z,26.50
2022-08-05T03:15:56.245Z,26.40
2022-08-05T03:18:48.837Z,26.40
2022-08-05T03:21:49.435Z,26.40
2022-08-05T03:24:40.262Z,26.40
2022-08-05T03:27:39.282Z,26.40
2022-08-05T03:30:28.663Z,26.20
2022-08-05T03:33:19.925Z,26.00
2022-08-05T03:36:12.697Z,25.90
2022-08-05T03:39:12.979Z,25.70
2022-08-05T03:42:02.387Z,25.60
2022-08-05T03:44:53.366Z,25.50
2022-08-05T03:47:44.528Z,25.40
2022-08-05T03:50:39.507Z,25.30
2022-08-05T03:55:52.346Z,25.20
2022-08-05T03:56:35.162Z,25.20
2022-08-05T03:59:29.146Z,25.20
2022-08-05T04:02:37.890Z,25.20
2022-08-05T04:05:16.282Z,25.20
2022-08-05T04:08:14.560Z,25.20
2022-08-05T04:11:06.104Z,25.30
2022-08-05T04:13:57.156Z,25.40
2022-08-05T04:16:51.205Z,25.30
2022-08-05T04:19:54.531Z,25.30
2022-08-05T04:22:52.235Z,25.40
2022-08-05T04:25:57.238Z,25.40
2022-08-05T04:28:35.808Z,25.60
2022-08-05T04:31:38.427Z,25.70
2022-08-05T04:34:32.690Z,25.70
2022-08-05T04:37:15.159Z,25.70
2022-08-05T04:40:11.215Z,25.80
2022-08-05T04:43:02.481Z,25.80
2022-08-05T04:45:54.895Z,25.80
2022-08-05T04:48:47.066Z,25.80
2022-08-05T04:51:39.946Z,25.80
2022-08-05T04:54:32.745Z,25.90
2022-08-05T04:57:28.705Z,25.90
2022-08-05T05:00:18.555Z,25.80
2022-08-05T05:03:11.863Z,25.80
2022-08-05T05:06:39.103Z,25.70
2022-08-05T05:08:57.136Z,25.60
2022-08-05T05:11:55.487Z,25.70
2022-08-05T05:14:49.274Z,25.70
2022-08-05T05:17:56.403Z,25.60
2022-08-05T05:20:37.274Z,25.60
2022-08-05T05:24:02.310Z,25.60
2022-08-05T05:26:28.309Z,25.60
2022-08-05T05:29:15.511Z,25.70
2022-08-05T05:32:12.436Z,25.60
2022-08-05T05:35:00.926Z,25.70
2022-08-05T05:37:59.810Z,25.80
2022-08-05T05:40:50.110Z,25.90
2022-08-05T05:43:58.186Z,25.90
2022-08-05T05:46:43.617Z,25.90
2022-08-05T05:49:35.107Z,25.80
2022-08-05T05:52:29.991Z,25.90
2022-08-05T05:55:20.410Z,25.90
2022-08-05T05:58:12.508Z,25.90
2022-08-05T06:01:13.334Z,25.90
2022-08-05T06:04:02.134Z,25.90
2022-08-05T06:06:50.727Z,26.00
2022-08-05T06:10:00.227Z,26.00
2022-08-05T06:12:42.118Z,25.90
2022-08-05T06:16:30.598Z,26.00
2022-08-05T06:18:31.108Z,26.00
2022-08-05T06:21:16.797Z,26.00
2022-08-05T06:24:11.858Z,26.10
2022-08-05T06:27:04.071Z,26.10
2022-08-05T06:30:04.469Z,26.20
2022-08-05T06:32:48.121Z,26.30
2022-08-05T06:36:05.665Z,26.40
2022-08-05T06:38:35.643Z,26.50
2022-08-05T06:41:26.374Z,26.50
2022-08-05T06:44:17.640Z,26.50
2022-08-05T06:47:10.281Z,26.60
2022-08-05T06:50:05.119Z,26.60
2022-08-05T06:53:03.624Z,26.70
2022-08-05T06:55:47.193Z,26.70
2022-08-05T06:58:46.730Z,26.70
2022-08-05T07:01:40.665Z,26.70
2022-08-05T07:04:31.767Z,26.80
2022-08-05T07:07:35.393Z,26.80
2022-08-05T07:10:17.922Z,26.90
2022-08-05T07:13:56.888Z,26.90
2022-08-05T07:17:56.799Z,26.90
2022-08-05T07:22:28.101Z,26.60
2022-08-05T07:25:54.122Z,26.30
2022-08-05T07:28:12.044Z,26.20
2022-08-05T07:31:04.736Z,26.30
2022-08-05T07:33:55.920Z,26.40
2022-08-05T07:36:48.505Z,26.30
2022-08-05T07:40:04.053Z,26.30
2022-08-05T07:42:36.405Z,26.30
2022-08-05T07:45:43.378Z,26.40
2022-08-05T07:49:01.453Z,26.50
2022-08-05T07:51:23.311Z,26.60
2022-08-05T07:54:04.718Z,26.60
2022-08-05T07:57:01.662Z,26.60
2022-08-05T07:59:49.549Z,26.70
2022-08-05T08:03:13.811Z,26.70
2022-08-05T08:05:39.644Z,26.80
2022-08-05T08:08:36.510Z,26.90
2022-08-05T08:11:53.614Z,27.00
2022-08-05T08:14:22.796Z,27.20
2022-08-05T08:17:16.202Z,27.20
2022-08-05T08:20:43.307Z,27.30
2022-08-05T08:23:03.715Z,27.50
2022-08-05T08:26:02.179Z,27.50
2022-08-05T08:29:02.146Z,27.60
2022-08-05T08:31:40.538Z,27.70
2022-08-05T08:34:33.298Z,27.80
2022-08-05T08:37:25.615Z,27.80
2022-08-05T08:40:27.409Z,27.80
2022-08-05T08:45:16.345Z,27.90
2022-08-05T08:46:18.933Z,28.00
2022-08-05T08:50:23.021Z,28.00
2022-08-05T08:52:13.674Z,28.00
2022-08-05T08:55:13.053Z,27.90
2022-08-05T08:57:58.626Z,27.90
2022-08-05T09:00:51.609Z,28.00
2022-08-05T09:03:54.316Z,28.00
2022-08-05T09:06:41.894Z,28.10
2022-08-05T09:09:35.797Z,28.10
2022-08-05T09:12:27.835Z,28.30
2022-08-05T09:15:19.762Z,28.40
2022-08-05T09:18:32.026Z,28.50
2022-08-05T09:22:17.848Z,28.70
2022-08-05T09:24:32.018Z,28.80
2022-08-05T09:28:05.253Z,28.80
2022-08-05T09:30:28.825Z,29.00
2022-08-05T09:33:22.774Z,29.20
2022-08-05T09:36:21.099Z,29.30
2022-08-05T09:39:16.402Z,29.50
2022-08-05T09:46:04.895Z,29.80
2022-08-05T09:48:24.739Z,29.90
2022-08-05T09:51:17.715Z,30.00
2022-08-05T09:54:10.121Z,30.20
2022-08-05T09:57:02.033Z,30.40
2022-08-05T09:59:56.009Z,30.50
2022-08-05T10:02:58.304Z,30.50
2022-08-05T10:05:48.996Z,30.70
2022-08-05T10:08:42.440Z,30.90
2022-08-05T10:11:35.428Z,31.00
2022-08-05T10:14:35.406Z,31.00
2022-08-05T10:17:37.408Z,31.10
2022-08-05T10:20:20.645Z,31.20
2022-08-05T10:23:33.908Z,31.40
2022-08-05T10:26:14.450Z,31.50
2022-08-05T10:29:05.849Z,31.70
2022-08-05T10:33:01.486Z,31.80
2022-08-05T10:34:52.017Z,32.00
2022-08-05T10:37:45.204Z,32.00
2022-08-05T10:40:43.579Z,32.20
2022-08-05T10:43:42.145Z,32.20
2022-08-05T10:46:50.598Z,32.30
2022-08-05T10:50:36.195Z,32.30
2022-08-05T10:52:58.743Z,32.40
2022-08-05T10:56:21.090Z,32.40
2022-08-05T11:00:01.384Z,32.40
2022-08-05T11:02:14.811Z,32.60
2022-08-05T11:05:07.333Z,32.90
2022-08-05T11:08:12.704Z,33.10
2022-08-05T11:11:07.731Z,33.30
2022-08-05T11:13:58.319Z,33.30
2022-08-05T11:16:57.201Z,33.40
2022-08-05T11:20:11.288Z,33.40
2022-08-05T11:22:44.171Z,33.60
2022-08-05T11:26:05.243Z,33.60
2022-08-05T11:28:51.694Z,33.60
2022-08-05T11:31:58.704Z,33.70
2022-08-05T11:34:50.883Z,33.70
2022-08-05T11:38:30.972Z,33.70
2022-08-05T11:41:35.426Z,33.80
2022-08-05T11:44:40.088Z,33.60
2022-08-05T11:47:14.098Z,33.70
2022-08-05T11:50:01.681Z,33.70
2022-08-05T11:52:58.306Z,33.70
2022-08-05T11:56:00.555Z,33.70
2022-08-05T11:58:53.575Z,33.80
2022-08-05T12:01:56.635Z,33.80
2022-08-05T12:04:59.397Z,34.00
2022-08-05T12:08:07.946Z,34.10
2022-08-05T12:13:48.422Z,34.10
2022-08-05T12:16:14.849Z,34.20
2022-08-05T12:19:08.410Z,34.40
2022-08-05T12:21:59.721Z,34.50
2022-08-05T12:24:57.913Z,34.60
2022-08-05T12:27:53.781Z,34.70
2022-08-05T12:30:56.517Z,34.80
2022-08-05T12:33:49.467Z,34.80
2022-08-05T12:36:42.737Z,34.70
2022-08-05T12:39:38.604Z,34.70
2022-08-05T12:45:49.679Z,34.90
2022-08-05T12:48:41.436Z,34.90
2022-08-05T12:52:12.081Z,35.00
2022-08-05T12:54:30.911Z,35.00
2022-08-05T12:57:23.438Z,35.10
2022-08-05T13:02:02.595Z,35.20
2022-08-05T13:03:31.963Z,35.20
2022-08-05T13:06:25.909Z,35.30
2022-08-05T13:09:27.888Z,35.30
2022-08-05T13:12:13.075Z,35.30
2022-08-05T13:15:06.681Z,35.30
2022-08-05T13:17:59.184Z,35.50
2022-08-05T13:20:55.596Z,35.70
2022-08-05T13:23:54.551Z,35.90
2022-08-05T13:26:50.574Z,35.80
2022-08-05T13:30:32.559Z,35.80
2022-08-05T13:32:42.013Z,35.90
2022-08-05T13:35:43.269Z,35.90
2022-08-05T13:38:31.057Z,36.10
2022-08-05T13:41:16.176Z,36.20
2022-08-05T13:44:15.932Z,36.20
2022-08-05T13:47:09.340Z,36.10
2022-08-05T13:50:00.465Z,36.00
2022-08-05T13:52:53.036Z,35.80
2022-08-05T13:55:50.235Z,35.90
2022-08-05T13:58:37.592Z,36.20
2022-08-05T14:01:46.673Z,36.40
2022-08-05T14:04:54.632Z,36.80
2022-08-05T14:07:59.681Z,37.00
2022-08-05T14:10:40.729Z,36.90
2022-08-05T14:13:32.344Z,36.80
2022-08-05T14:16:32.073Z,36.70
2022-08-05T14:19:24.165Z,36.80
2022-08-05T14:22:17.648Z,36.70
2022-08-05T14:25:21.554Z,36.60
2022-08-05T14:28:05.152Z,36.40
2022-08-05T14:30:58.016Z,36.40
2022-08-05T14:33:59.499Z,36.40
2022-08-05T14:36:42.527Z,36.50
2022-08-05T14:39:49.462Z,36.40
2022-08-05T14:42:27.892Z,36.30
2022-08-05T14:45:22.758Z,36.20
2022-08-05T14:48:32.344Z,36.00
2022-08-05T14:51:08.491Z,35.80
2022-08-05T14:54:26.596Z,35.80
2022-08-05T14:56:54.631Z,35.70
2022-08-05T14:59:44.698Z,35.70
2022-08-05T15:02:36.770Z,35.70
2022-08-05T15:06:07.019Z,35.50
2022-08-05T15:08:57.563Z,35.30
2022-08-05T15:11:15.083Z,35.40
2022-08-05T15:14:07.357Z,35.20
2022-08-05T15:16:59.398Z,34.80
2022-08-05T15:20:02.372Z,34.80
2022-08-05T15:23:07.765Z,34.50
2022-08-05T15:26:03.171Z,34.30
2022-08-05T15:28:54.038Z,34.20
2022-08-05T15:31:51.075Z,34.00
2022-08-05T15:34:39.495Z,34.00
2022-08-05T15:38:32.255Z,34.00
2022-08-05T15:41:00.838Z,34.10
2022-08-05T15:43:20.443Z,34.00
2022-08-05T15:46:10.759Z,34.00
2022-08-05T15:49:10.570Z,33.90
2022-08-05T15:52:12.459Z,33.70
2022-08-05T15:54:47.545Z,33.70
2022-08-05T15:57:40.594Z,33.60
2022-08-05T16:00:50.701Z,33.40
2022-08-05T16:03:52.386Z,33.30
2022-08-05T16:06:43.858Z,33.20
2022-08-05T16:09:35.278Z,33.20
2022-08-05T16:12:27.758Z,33.10
2022-08-05T16:15:20.228Z,33.10
2022-08-05T16:18:12.449Z,32.90
2022-08-05T16:21:13.108Z,32.90
2022-08-05T16:24:12.864Z,32.90
2022-08-05T16:27:03.858Z,32.80
2022-08-05T16:29:56.709Z,32.70
2022-08-05T16:32:48.211Z,32.70
2022-08-05T16:35:42.963Z,32.70
2022-08-05T16:38:33.991Z,32.50
2022-08-05T16:42:14.007Z,32.50
2022-08-05T16:44:21.127Z,32.40
2022-08-05T16:47:28.569Z,32.30
2022-08-05T16:50:07.249Z,32.30
2022-08-05T16:53:12.002Z,32.20
2022-08-05T16:55:53.942Z,32.00
2022-08-05T16:58:47.021Z,31.80
2022-08-05T17:01:53.206Z,31.50
2022-08-05T17:04:33.929Z,31.00
2022-08-05T17:07:39.187Z,30.60
2022-08-05T17:10:18.431Z,30.10
2022-08-05T17:13:16.956Z,29.90
2022-08-05T17:16:19.690Z,29.80
2022-08-05T17:18:55.038Z,29.40
2022-08-05T17:21:51.591Z,29.00
2022-08-05T17:24:45.316Z,28.90
2022-08-05T17:27:34.585Z,28.80
2022-08-05T17:30:28.339Z,28.60
2022-08-05T17:33:18.668Z,28.30
2022-08-05T17:36:33.675Z,27.80
2022-08-05T17:39:05.103Z,27.40
2022-08-05T17:42:17.809Z,27.30
2022-08-05T17:44:51.053Z,27.10
2022-08-05T17:47:42.873Z,26.80
2022-08-05T17:50:34.747Z,26.60
2022-08-05T17:53:29.797Z,26.50
2022-08-05T17:56:18.900Z,26.50
2022-08-05T17:59:10.493Z,26.40
2022-08-05T18:02:02.925Z,26.30
2022-08-05T18:04:55.679Z,26.00
2022-08-05T18:07:47.553Z,25.90
2022-08-05T18:10:39.408Z,25.90
2022-08-05T18:13:36.722Z,25.70
2022-08-05T18:16:24.371Z,25.30
2022-08-05T18:19:16.019Z,25.00
2022-08-05T18:22:11.608Z,24.90
2022-08-05T18:25:00.302Z,24.70
2022-08-05T18:27:52.955Z,24.70
2022-08-05T18:30:44.376Z,24.60
2022-08-05T18:33:46.654Z,24.80
2022-08-05T18:36:29.159Z,24.80
2022-08-05T18:39:42.070Z,24.90
2022-08-05T18:42:13.194Z,24.80
2022-08-05T18:45:09.718Z,24.70
2022-08-05T18:48:00.748Z,24.70
2022-08-05T18:52:04.969Z,24.60
2022-08-05T18:54:04.180Z,24.70
2022-08-05T18:56:57.099Z,24.70
2022-08-05T19:00:01.689Z,24.80
2022-08-05T19:02:41.844Z,24.80
2022-08-05T19:06:11.728Z,24.80
2022-08-05T19:08:34.058Z,24.90
2022-08-05T19:11:28.489Z,25.00
2022-08-05T19:14:44.673Z,25.10
2022-08-05T19:17:13.801Z,25.30
2022-08-05T19:20:09.046Z,25.40
2022-08-05T19:23:00.579Z,25.40
2022-08-05T19:25:51.989Z,25.40
2022-08-05T19:28:44.825Z,25.30
2022-08-05T19:31:44.999Z,25.30
2022-08-05T19:34:30.027Z,25.40
2022-08-05T19:37:22.110Z,25.40
2022-08-05T19:40:15.512Z,25.20
2022-08-05T19:43:08.229Z,25.10
2022-08-05T19:46:16.743Z,24.90
2022-08-05T19:49:07.492Z,24.80
2022-08-05T19:52:09.202Z,24.70
2022-08-05T19:54:52.620Z,24.70
2022-08-05T19:58:14.386Z,24.50
2022-08-05T20:01:00.230Z,24.50
2022-08-05T20:03:56.588Z,24.50
2022-08-05T20:06:48.782Z,24.40
2022-08-05T20:09:54.409Z,24.40
2022-08-05T20:12:33.070Z,24.30
2022-08-05T20:15:51.818Z,24.20
2022-08-05T20:18:33.767Z,24.20
2022-08-05T20:21:15.520Z,24.10
2022-08-05T20:24:18.650Z,23.90
2022-08-05T20:27:11.195Z,23.80
2022-08-05T20:30:02.892Z,23.90
2022-08-05T20:32:53.969Z,23.90
2022-08-05T20:35:58.283Z,23.90
2022-08-05T20:39:04.050Z,23.90
2022-08-05T20:42:00.382Z,23.90
2022-08-05T20:44:50.611Z,23.90
2022-08-05T20:47:41.637Z,23.90
2022-08-05T20:50:34.273Z,24.00
2022-08-05T20:53:37.012Z,24.10
2022-08-05T20:56:28.089Z,24.20
2022-08-05T20:59:19.044Z,24.30
2022-08-05T21:02:04.777Z,24.20
2022-08-05T21:04:57.398Z,24.10
2022-08-05T21:07:52.240Z,24.10
2022-08-05T21:10:48.531Z,24.10
2022-08-05T21:13:48.088Z,24.10
2022-08-05T21:16:29.377Z,24.10
2022-08-05T21:19:23.400Z,24.10
2022-08-05T21:22:14.876Z,24.10
2022-08-05T21:25:09.842Z,24.00
2022-08-05T21:28:00.902Z,23.80
2022-08-05T21:30:52.426Z,23.80
2022-08-05T21:33:47.577Z,23.80
2022-08-05T21:36:37.508Z,23.80
2022-08-05T21:39:28.491Z,23.70
2022-08-05T21:42:20.563Z,23.60
2022-08-05T21:45:24.190Z,23.60
2022-08-05T21:48:08.393Z,23.60
2022-08-05T21:50:59.059Z,23.60
2022-08-05T21:53:59.398Z,23.60
2022-08-05T21:56:44.506Z,23.60
2022-08-05T21:59:54.409Z,23.60
2022-08-05T22:02:28.332Z,23.60
2022-08-05T22:05:19.258Z,23.50
2022-08-05T22:08:22.308Z,23.40
2022-08-05T22:11:06.683Z,23.40
2022-08-05T22:14:32.586Z,23.30
2022-08-05T22:16:51.819Z,23.40
2022-08-05T22:20:01.036Z,23.40
2022-08-05T22:22:38.058Z,23.50
2022-08-05T22:26:10.554Z,23.40
2022-08-05T22:28:39.594Z,23.50
2022-08-05T22:31:30.722Z,23.50
2022-08-05T22:34:28.299Z,23.50
2022-08-05T22:37:16.135Z,23.50
2022-08-05T22:40:10.473Z,23.50
2022-08-05T22:43:03.017Z,23.60
2022-08-05T22:45:55.494Z,23.50
2022-08-05T22:48:48.287Z,23.60
2022-08-05T22:52:04.479Z,23.60
2022-08-05T22:54:31.949Z,23.50
2022-08-05T22:57:23.532Z,23.50
2022-08-05T23:00:18.285Z,23.40
2022-08-05T23:03:09.026Z,23.40
2022-08-05T23:06:01.624Z,23.30
2022-08-05T23:08:53.279Z,23.30
2022-08-05T23:11:44.574Z,23.30
2022-08-05T23:14:37.772Z,23.30
2022-08-05T23:17:35.050Z,23.30
2022-08-05T23:20:22.126Z,23.30
2022-08-05T23:23:14.806Z,23.30
2022-08-05T23:26:05.753Z,23.40
2022-08-05T23:28:57.044Z,23.30
2022-08-05T23:31:49.897Z,23.40
2022-08-05T23:34:41.522Z,23.40
2022-08-05T23:37:34.252Z,23.30
2022-08-05T23:40:27.167Z,23.30
2022-08-05T23:43:25.047Z,23.30
2022-08-05T23:46:21.086Z,23.30
2022-08-05T23:49:16.878Z,23.40
2022-08-05T23:52:16.335Z,23.40
2022-08-05T23:55:10.925Z,23.40
2022-08-05T23:58:03.288Z,23.30
